createdAt,value
2022-08-08T00:00:56.243Z,81.20
2022-08-08T00:03:31.318Z,81.30
2022-08-08T00:06:34.911Z,90.40
2022-08-08T00:09:33.243Z,91.50
2022-08-08T00:12:29.879Z,91.60
2022-08-08T00:15:24.468Z,92.50
2022-08-08T00:18:49.820Z,92.70
2022-08-08T00:21:44.131Z,91.80
2022-08-08T00:24:37.801Z,91.60
2022-08-08T00:27:32.897Z,84.20
2022-08-08T00:30:24.014Z,82.30
2022-08-08T00:33:15.454Z,82.30
2022-08-08T00:36:17.336Z,82.20
2022-08-08T00:39:36.250Z,82.10
2022-08-08T00:42:47.893Z,82.50
2022-08-08T00:45:38.734Z,82.40
2022-08-08T00:48:59.488Z,82.60
2022-08-08T00:52:04.950Z,82.80
2022-08-08T00:55:22.073Z,82.80
2022-08-08T00:58:30.739Z,82.80
2022-08-08T01:01:29.335Z,82.80
2022-08-08T01:05:04.439Z,82.70
2022-08-08T01:08:28.882Z,82.80
2022-08-08T01:11:32.699Z,83.00
2022-08-08T01:15:00.474Z,82.80
2022-08-08T01:18:53.183Z,83.00
2022-08-08T01:22:10.421Z,83.30
2022-08-08T01:25:16.923Z,83.40
2022-08-08T01:28:18.066Z,83.60
2022-08-08T01:32:06.368Z,83.90
2022-08-08T01:34:55.075Z,83.60
2022-08-08T01:38:19.075Z,83.90
2022-08-08T01:41:24.174Z,84.20
2022-08-08T01:44:28.051Z,84.40
2022-08-08T01:48:11.578Z,84.40
2022-08-08T01:50:55.195Z,85.40
2022-08-08T01:55:26.482Z,84.80
2022-08-08T01:57:19.555Z,85.10
2022-08-08T02:00:19.317Z,85.00
2022-08-08T02:03:56.090Z,85.00
2022-08-08T02:06:58.359Z,85.20
2022-08-08T02:10:30.035Z,85.00
2022-08-08T02:13:54.225Z,85.00
2022-08-08T02:16:53.884Z,85.30
2022-08-08T02:20:07.311Z,85.30
2022-08-08T02:23:16.551Z,85.40
2022-08-08T02:26:15.914Z,85.10
2022-08-08T02:29:31.437Z,84.90
2022-08-08T02:32:46.260Z,85.00
2022-08-08T02:36:05.137Z,85.00
2022-08-08T02:38:56.317Z,85.10
2022-08-08T02:42:13.881Z,85.00
2022-08-08T02:45:21.230Z,85.10
2022-08-08T02:48:37.262Z,85.10
2022-08-08T02:51:56.481Z,85.20
2022-08-08T02:54:51.602Z,85.10
2022-08-08T02:58:19.982Z,85.00
2022-08-08T03:01:50.077Z,84.80
2022-08-08T03:05:10.563Z,84.10
2022-08-08T03:08:30.484Z,84.20
2022-08-08T03:12:01.144Z,84.40
2022-08-08T03:16:00.050Z,84.30
2022-08-08T03:18:07.518Z,84.40
2022-08-08T03:20:58.288Z,84.40
2022-08-08T03:23:57.292Z,84.30
2022-08-08T03:26:57.346Z,84.30
2022-08-08T03:29:55.362Z,84.40
2022-08-08T03:33:07.693Z,84.60
2022-08-08T03:36:12.692Z,84.80
2022-08-08T03:39:14.753Z,84.60
2022-08-08T03:42:28.706Z,84.80
2022-08-08T03:46:07.357Z,85.00
2022-08-08T03:49:09.004Z,84.80
2022-08-08T03:51:47.029Z,84.80
2022-08-08T03:55:02.303Z,84.90
2022-08-08T03:58:32.068Z,84.90
2022-08-08T04:01:24.363Z,84.60
2022-08-08T04:04:22.990Z,85.00
2022-08-08T04:07:17.877Z,85.20
2022-08-08T04:10:10.724Z,85.20
2022-08-08T04:13:00.231Z,85.40
2022-08-08T04:15:54.725Z,85.60
2022-08-08T04:18:55.818Z,85.70
2022-08-08T04:21:45.721Z,85.70
2022-08-08T04:24:33.950Z,85.80
2022-08-08T04:28:02.418Z,85.90
2022-08-08T04:30:36.701Z,85.80
2022-08-08T04:33:38.526Z,85.90
2022-08-08T04:36:31.131Z,86.10
2022-08-08T04:40:04.048Z,86.20
2022-08-08T04:42:31.851Z,86.40
2022-08-08T04:45:20.495Z,86.50
2022-08-08T04:48:09.978Z,86.70
2022-08-08T04:51:00.174Z,86.70
2022-08-08T04:54:39.391Z,87.00
2022-08-08T04:57:00.398Z,87.10
2022-08-08T04:59:48.090Z,87.30
2022-08-08T05:02:35.852Z,87.30
2022-08-08T05:05:45.190Z,87.40
2022-08-08T05:08:32.382Z,87.50
2022-08-08T05:11:24.033Z,87.50
2022-08-08T05:14:15.537Z,87.70
2022-08-08T05:17:10.775Z,87.80
2022-08-08T05:20:12.277Z,87.90
2022-08-08T05:23:02.629Z,88.10
2022-08-08T05:25:55.323Z,88.20
2022-08-08T05:28:56.870Z,88.20
2022-08-08T05:32:04.412Z,88.20
2022-08-08T05:34:54.662Z,87.90
2022-08-08T05:37:52.341Z,87.60
2022-08-08T05:41:06.010Z,87.40
2022-08-08T05:44:04.853Z,87.10
2022-08-08T05:47:02.906Z,86.60
2022-08-08T05:49:53.901Z,86.60
2022-08-08T05:52:46.671Z,86.00
2022-08-08T05:56:08.003Z,85.50
2022-08-08T05:58:57.878Z,85.00
2022-08-08T06:01:59.907Z,84.40
2022-08-08T06:04:56.039Z,84.00
2022-08-08T06:07:48.825Z,83.10
2022-08-08T06:10:41.872Z,82.90
2022-08-08T06:13:36.385Z,82.20
2022-08-08T06:16:38.207Z,81.50
2022-08-08T06:19:35.223Z,80.90
2022-08-08T06:22:38.289Z,80.50
2022-08-08T06:26:38.156Z,80.10
2022-08-08T06:28:54.642Z,79.20
2022-08-08T06:32:08.991Z,78.50
2022-08-08T06:34:56.366Z,77.70
2022-08-08T06:38:09.410Z,77.30
2022-08-08T06:41:06.693Z,76.70
2022-08-08T06:44:03.058Z,76.10
2022-08-08T06:46:56.371Z,75.50
2022-08-08T06:49:55.723Z,74.90
2022-08-08T06:52:50.262Z,74.40
2022-08-08T06:55:41.808Z,74.00
2022-08-08T06:58:33.101Z,74.40
2022-08-08T07:02:18.076Z,74.20
2022-08-08T07:04:49.744Z,73.10
2022-08-08T07:07:55.461Z,72.50
2022-08-08T07:10:51.486Z,71.70
2022-08-08T07:14:00.832Z,70.70
2022-08-08T07:17:02.785Z,70.10
2022-08-08T07:20:06.605Z,69.50
2022-08-08T07:23:04.685Z,69.60
2022-08-08T07:25:57.600Z,68.40
2022-08-08T07:28:51.983Z,68.20
2022-08-08T07:31:45.421Z,68.10
2022-08-08T07:34:36.505Z,66.80
2022-08-08T07:37:55.913Z,66.30
2022-08-08T07:41:04.235Z,65.70
2022-08-08T07:43:56.614Z,65.00
2022-08-08T07:46:43.998Z,64.90
2022-08-08T07:49:34.865Z,64.20
2022-08-08T07:52:27.127Z,64.10
2022-08-08T07:55:28.527Z,63.60
2022-08-08T07:58:27.288Z,62.90
2022-08-08T08:01:27.184Z,61.80
2022-08-08T08:04:39.960Z,62.10
2022-08-08T08:07:38.949Z,61.80
2022-08-08T08:10:35.651Z,61.30
2022-08-08T08:13:42.737Z,61.30
2022-08-08T08:16:41.632Z,60.30
2022-08-08T08:19:45.607Z,60.20
2022-08-08T08:22:37.048Z,59.70
2022-08-08T08:25:40.745Z,59.50
2022-08-08T08:28:33.037Z,60.10
2022-08-08T08:31:22.615Z,59.30
2022-08-08T08:34:09.837Z,59.00
2022-08-08T08:40:01.046Z,57.10
2022-08-08T08:42:57.557Z,56.60
2022-08-08T08:45:50.819Z,56.90
2022-08-08T08:48:49.527Z,55.60
2022-08-08T08:51:51.421Z,58.40
2022-08-08T08:54:41.739Z,55.60
2022-08-08T08:57:30.460Z,54.10
2022-08-08T09:00:24.816Z,59.90
2022-08-08T09:03:16.254Z,52.80
2022-08-08T09:06:26.135Z,52.10
2022-08-08T09:09:35.267Z,51.90
2022-08-08T09:12:36.679Z,51.40
2022-08-08T09:15:40.810Z,51.90
2022-08-08T09:18:32.259Z,50.90
2022-08-08T09:21:59.113Z,50.80
2022-08-08T09:24:28.248Z,51.20
2022-08-08T09:27:21.018Z,51.10
2022-08-08T09:30:17.934Z,50.40
2022-08-08T09:34:15.443Z,50.50
2022-08-08T09:36:23.672Z,51.00
2022-08-08T09:39:20.300Z,51.10
2022-08-08T09:42:21.178Z,49.90
2022-08-08T09:45:20.698Z,49.50
2022-08-08T09:48:26.957Z,50.30
2022-08-08T09:51:27.440Z,50.90
2022-08-08T09:54:37.302Z,55.20
2022-08-08T09:57:35.001Z,50.40
2022-08-08T10:00:53.067Z,52.00
2022-08-08T10:03:56.178Z,50.80
2022-08-08T10:06:46.832Z,50.40
2022-08-08T10:10:00.759Z,49.60
2022-08-08T10:12:54.407Z,50.30
2022-08-08T10:16:01.134Z,50.20
2022-08-08T10:18:55.285Z,50.40
2022-08-08T10:21:51.167Z,51.40
2022-08-08T10:24:47.249Z,50.80
2022-08-08T10:27:43.439Z,51.70
2022-08-08T10:30:57.338Z,51.20
2022-08-08T10:34:18.891Z,51.30
2022-08-08T10:36:48.735Z,51.10
2022-08-08T10:39:54.554Z,52.20
2022-08-08T10:42:44.974Z,52.10
2022-08-08T10:45:42.902Z,51.70
2022-08-08T10:48:58.577Z,51.80
2022-08-08T10:51:51.448Z,52.30
2022-08-08T10:54:41.347Z,52.20
2022-08-08T10:57:41.446Z,52.70
2022-08-08T11:00:52.606Z,52.20
2022-08-08T11:04:00.413Z,51.70
2022-08-08T11:06:49.603Z,51.60
2022-08-08T11:09:47.357Z,51.50
2022-08-08T11:12:38.357Z,51.40
2022-08-08T11:15:30.950Z,52.00
2022-08-08T11:18:20.632Z,51.30
2022-08-08T11:21:10.260Z,51.40
2022-08-08T11:24:01.951Z,57.00
2022-08-08T11:26:53.859Z,56.40
2022-08-08T11:30:04.096Z,49.60
2022-08-08T11:32:55.303Z,50.10
2022-08-08T11:35:45.416Z,50.80
2022-08-08T11:38:43.702Z,51.40
2022-08-08T11:41:45.107Z,50.20
2022-08-08T11:44:34.326Z,49.50
2022-08-08T11:47:23.378Z,59.90
2022-08-08T11:50:29.701Z,55.30
2022-08-08T11:53:17.440Z,48.80
2022-08-08T11:56:21.348Z,62.30
2022-08-08T11:59:10.794Z,58.10
2022-08-08T12:02:30.512Z,67.90
2022-08-08T12:05:14.554Z,72.90
2022-08-08T12:08:02.677Z,78.10
2022-08-08T12:10:52.978Z,66.20
2022-08-08T12:14:04.167Z,71.80
2022-08-08T12:16:53.367Z,78.30
2022-08-08T12:22:51.129Z,48.10
2022-08-08T12:25:44.881Z,47.50
2022-08-08T12:28:39.747Z,46.80
2022-08-08T12:31:39.082Z,48.10
2022-08-08T12:34:44.831Z,48.10
2022-08-08T12:37:41.541Z,47.00
2022-08-08T12:40:54.490Z,46.70
2022-08-08T12:43:59.440Z,46.60
2022-08-08T12:47:00.165Z,47.10
2022-08-08T12:49:56.524Z,46.80
2022-08-08T12:52:55.740Z,47.90
2022-08-08T12:56:08.493Z,48.20
2022-08-08T12:59:01.416Z,47.70
2022-08-08T13:01:54.662Z,48.10
2022-08-08T13:04:53.419Z,50.00
2022-08-08T13:08:03.848Z,49.00
2022-08-08T13:10:58.342Z,47.50
2022-08-08T13:13:53.690Z,47.30
2022-08-08T13:16:43.937Z,47.10
2022-08-08T13:19:50.045Z,47.50
2022-08-08T13:22:39.179Z,47.10
2022-08-08T13:25:27.171Z,46.90
2022-08-08T13:28:14.143Z,46.90
2022-08-08T13:31:05.855Z,47.20
2022-08-08T13:33:54.511Z,46.70
2022-08-08T13:36:44.602Z,45.90
2022-08-08T13:39:33.433Z,46.40
2022-08-08T13:42:23.132Z,46.50
2022-08-08T13:45:12.829Z,47.10
2022-08-08T13:48:04.157Z,46.20
2022-08-08T13:50:57.780Z,46.10
2022-08-08T13:53:53.281Z,45.90
2022-08-08T13:57:01.531Z,46.00
2022-08-08T13:59:50.272Z,45.10
2022-08-08T14:02:41.246Z,44.90
2022-08-08T14:05:29.711Z,45.20
2022-08-08T14:08:30.470Z,45.80
2022-08-08T14:11:24.991Z,46.00
2022-08-08T14:14:14.087Z,46.40
2022-08-08T14:17:22.095Z,45.40
2022-08-08T14:20:56.746Z,45.80
2022-08-08T14:24:06.944Z,46.50
2022-08-08T14:26:33.677Z,45.70
2022-08-08T14:29:28.065Z,46.20
2022-08-08T14:32:25.133Z,45.90
2022-08-08T14:35:20.345Z,46.40
2022-08-08T14:38:51.630Z,45.80
2022-08-08T14:41:53.489Z,45.20
2022-08-08T14:44:35.248Z,44.50
2022-08-08T14:47:22.970Z,44.00
2022-08-08T14:50:16.359Z,43.80
2022-08-08T14:53:23.914Z,44.50
2022-08-08T14:56:13.170Z,44.40
2022-08-08T14:59:01.127Z,44.30
2022-08-08T15:01:51.680Z,45.50
2022-08-08T15:04:38.578Z,45.30
2022-08-08T15:07:39.115Z,45.10
2022-08-08T15:10:28.914Z,44.80
2022-08-08T15:13:16.173Z,45.50
2022-08-08T15:16:03.913Z,46.80
2022-08-08T15:18:52.981Z,45.80
2022-08-08T15:21:42.892Z,45.90
2022-08-08T15:24:31.544Z,45.40
2022-08-08T15:27:57.861Z,44.90
2022-08-08T15:30:41.034Z,45.00
2022-08-08T15:33:35.742Z,45.20
2022-08-08T15:36:37.404Z,45.90
2022-08-08T15:39:25.707Z,45.60
2022-08-08T15:42:31.499Z,45.90
2022-08-08T15:45:22.908Z,45.90
2022-08-08T15:48:16.092Z,45.90
2022-08-08T15:51:06.391Z,46.30
2022-08-08T15:53:55.194Z,46.20
2022-08-08T15:56:42.633Z,46.40
2022-08-08T16:00:10.970Z,46.10
2022-08-08T16:02:37.564Z,46.60
2022-08-08T16:05:35.519Z,46.70
2022-08-08T16:08:33.427Z,46.40
2022-08-08T16:13:14.556Z,46.20
2022-08-08T16:14:33.322Z,46.00
2022-08-08T16:17:58.097Z,46.30
2022-08-08T16:20:29.284Z,46.70
2022-08-08T16:23:16.968Z,46.40
2022-08-08T16:26:17.381Z,46.50
2022-08-08T16:29:09.606Z,46.20
2022-08-08T16:31:56.893Z,46.40
2022-08-08T16:34:48.217Z,47.20
2022-08-08T16:37:35.903Z,46.70
2022-08-08T16:40:24.086Z,46.50
2022-08-08T16:43:16.791Z,47.10
2022-08-08T16:46:38.872Z,46.90
2022-08-08T16:49:14.170Z,47.20
2022-08-08T16:55:05.800Z,47.10
2022-08-08T16:55:33.888Z,46.70
2022-08-08T16:58:18.675Z,46.70
2022-08-08T17:01:14.948Z,46.60
2022-08-08T17:04:03.559Z,46.80
2022-08-08T17:06:51.390Z,46.90
2022-08-08T17:09:45.209Z,47.70
2022-08-08T17:12:33.367Z,47.70
2022-08-08T17:15:23.695Z,47.50
2022-08-08T17:18:15.907Z,47.30
2022-08-08T17:21:03.289Z,47.60
2022-08-08T17:23:58.159Z,47.60
2022-08-08T17:26:49.481Z,47.90
2022-08-08T17:29:43.348Z,48.20
2022-08-08T17:32:44.512Z,48.90
2022-08-08T17:35:54.289Z,49.20
2022-08-08T17:38:44.242Z,48.80
2022-08-08T17:41:39.150Z,48.90
2022-08-08T17:44:30.373Z,48.90
2022-08-08T17:47:23.651Z,49.10
2022-08-08T17:50:14.635Z,48.90
2022-08-08T17:53:03.006Z,49.20
2022-08-08T17:56:04.662Z,49.10
2022-08-08T17:58:55.257Z,49.30
2022-08-08T18:01:53.861Z,49.50
2022-08-08T18:04:42.558Z,50.00
2022-08-08T18:08:03.414Z,50.00
2022-08-08T18:10:46.400Z,49.90
2022-08-08T18:13:35.050Z,50.40
2022-08-08T18:16:30.974Z,50.30
2022-08-08T18:19:21.500Z,50.40
2022-08-08T18:22:08.209Z,50.70
2022-08-08T18:25:15.201Z,50.80
2022-08-08T18:28:03.642Z,50.70
2022-08-08T18:30:50.815Z,50.90
2022-08-08T18:34:11.746Z,51.00
2022-08-08T18:36:45.637Z,51.20
2022-08-08T18:39:34.800Z,52.60
2022-08-08T18:42:23.848Z,52.00
2022-08-08T18:46:52.370Z,52.20
2022-08-08T18:48:21.541Z,52.20
2022-08-08T18:51:42.049Z,53.40
2022-08-08T18:54:22.849Z,54.90
2022-08-08T18:57:15.561Z,55.70
2022-08-08T19:00:03.921Z,55.70
2022-08-08T19:03:04.146Z,56.80
2022-08-08T19:05:53.726Z,57.80
2022-08-08T19:08:42.264Z,57.30
2022-08-08T19:11:32.575Z,57.90
2022-08-08T19:14:22.927Z,58.60
2022-08-08T19:17:10.791Z,58.70
2022-08-08T19:19:59.812Z,59.10
2022-08-08T19:22:50.436Z,59.10
2022-08-08T19:26:02.393Z,59.50
2022-08-08T19:28:45.435Z,59.80
2022-08-08T19:31:35.331Z,59.90
2022-08-08T19:34:36.105Z,60.90
2022-08-08T19:37:42.224Z,61.20
2022-08-08T19:40:32.730Z,61.30
2022-08-08T19:43:20.073Z,62.00
2022-08-08T19:46:09.995Z,62.20
2022-08-08T19:49:01.565Z,70.50
2022-08-08T19:51:50.116Z,62.60
2022-08-08T19:54:43.231Z,62.80
2022-08-08T19:57:30.822Z,63.10
2022-08-08T20:00:30.056Z,63.50
2022-08-08T20:04:00.305Z,63.90
2022-08-08T20:06:26.231Z,63.80
2022-08-08T20:09:13.073Z,64.40
2022-08-08T20:12:08.513Z,64.90
2022-08-08T20:14:56.995Z,65.40
2022-08-08T20:17:46.078Z,68.00
2022-08-08T20:20:33.173Z,65.40
2022-08-08T20:23:21.556Z,65.30
2022-08-08T20:26:08.995Z,66.30
2022-08-08T20:28:59.645Z,66.30
2022-08-08T20:32:06.826Z,66.70
2022-08-08T20:34:54.616Z,66.00
2022-08-08T20:37:57.496Z,66.80
2022-08-08T20:40:50.967Z,66.90
2022-08-08T20:43:47.911Z,67.00
2022-08-08T20:46:38.332Z,66.00
2022-08-08T20:49:39.663Z,66.00
2022-08-08T20:52:29.393Z,66.70
2022-08-08T20:55:25.942Z,67.40
2022-08-08T20:58:13.724Z,67.50
2022-08-08T21:01:01.396Z,67.80
2022-08-08T21:03:56.012Z,68.30
2022-08-08T21:06:53.032Z,79.90
2022-08-08T21:10:01.611Z,68.50
2022-08-08T21:12:48.492Z,68.10
2022-08-08T21:16:04.910Z,68.50
2022-08-08T21:18:50.331Z,76.70
2022-08-08T21:21:39.737Z,69.10
2022-08-08T21:24:30.543Z,69.50
2022-08-08T21:28:06.397Z,70.80
2022-08-08T21:33:17.029Z,96.40
2022-08-08T21:36:20.215Z,70.50
2022-08-08T21:39:08.200Z,70.70
2022-08-08T21:41:59.132Z,70.70
2022-08-08T21:44:59.049Z,71.10
2022-08-08T21:48:01.347Z,71.30
2022-08-08T21:50:55.888Z,71.50
2022-08-08T21:54:31.287Z,94.30
2022-08-08T21:56:54.289Z,94.70
2022-08-08T22:00:01.938Z,98.50
2022-08-08T22:02:49.338Z,93.60
2022-08-08T22:05:37.610Z,96.40
2022-08-08T22:26:27.286Z,71.80
2022-08-08T22:29:57.015Z,73.30
2022-08-08T22:32:19.506Z,73.90
2022-08-08T22:35:09.157Z,74.30
2022-08-08T22:38:00.064Z,74.70
2022-08-08T22:40:48.314Z,74.80
2022-08-08T22:43:39.406Z,75.00
2022-08-08T22:46:45.782Z,75.40
2022-08-08T22:49:33.009Z,75.60
2022-08-08T22:52:26.088Z,76.00
2022-08-08T22:55:20.661Z,76.10
2022-08-08T22:58:10.212Z,76.50
2022-08-08T23:00:59.869Z,76.60
2022-08-08T23:03:53.518Z,76.70
2022-08-08T23:06:42.325Z,76.90
2022-08-08T23:09:39.478Z,77.20
2022-08-08T23:12:41.624Z,77.50
2022-08-08T23:16:39.934Z,77.80
2022-08-08T23:18:36.245Z,77.80
2022-08-08T23:21:27.879Z,78.30
2022-08-08T23:24:22.693Z,78.50
2022-08-08T23:27:17.308Z,90.40
2022-08-08T23:30:19.906Z,94.00
2022-08-08T23:48:59.930Z,99.90
2022-08-08T23:50:34.257Z,80.00
2022-08-08T23:53:55.696Z,80.10
2022-08-08T23:56:32.409Z,80.20
2022-08-08T23:59:21.755Z,80.60
